sensor_id;sensor_type;location;lat;lon;timestamp;P1;durP1;ratioP1;P2;durP2;ratioP2
61895;SDS011;47835;52.778;5.956;2024-01-25T20:19:54;49.17;;;17.73;;
61895;SDS011;47835;52.778;5.956;2024-01-25T20:22:19;53.13;;;20.15;;
61895;SDS011;47835;52.778;5.956;2024-01-25T20:24:45;50.50;;;20.63;;
61895;SDS011;47835;52.778;5.956;2024-01-25T20:27:10;44.88;;;19.73;;
61895;SDS011;47835;52.778;5.956;2024-01-25T20:29:36;54.00;;;21.20;;
61895;SDS011;47835;52.778;5.956;2024-01-25T20:32:02;59.47;;;24.30;;
61895;SDS011;47835;52.778;5.956;2024-01-25T20:34:28;52.75;;;20.52;;
61895;SDS011;47835;52.778;5.956;2024-01-25T20:36:55;44.78;;;18.38;;
61895;SDS011;47835;52.778;5.956;2024-01-25T20:39:21;56.00;;;19.52;;
61895;SDS011;47835;52.778;5.956;2024-01-25T20:41:47;49.35;;;20.20;;
61895;SDS011;47835;52.778;5.956;2024-01-25T20:44:12;49.65;;;18.08;;
61895;SDS011;47835;52.778;5.956;2024-01-25T20:46:39;48.47;;;18.60;;
61895;SDS011;47835;52.778;5.956;2024-01-25T20:49:04;47.55;;;19.95;;
61895;SDS011;47835;52.778;5.956;2024-01-25T20:51:30;52.95;;;21.38;;
61895;SDS011;47835;52.778;5.956;2024-01-25T20:53:56;57.10;;;22.23;;
61895;SDS011;47835;52.778;5.956;2024-01-25T20:56:22;59.58;;;20.90;;
61895;SDS011;47835;52.778;5.956;2024-01-25T20:58:47;47.45;;;17.63;;
61895;SDS011;47835;52.778;5.956;2024-01-25T21:01:15;52.33;;;19.55;;
61895;SDS011;47835;52.778;5.956;2024-01-25T21:03:41;45.58;;;17.63;;
61895;SDS011;47835;52.778;5.956;2024-01-25T21:06:07;54.03;;;19.30;;
61895;SDS011;47835;52.778;5.956;2024-01-25T21:08:33;53.78;;;18.73;;
61895;SDS011;47835;52.778;5.956;2024-01-25T21:10:59;50.20;;;19.02;;
61895;SDS011;47835;52.778;5.956;2024-01-25T21:13:25;50.00;;;18.42;;
61895;SDS011;47835;52.778;5.956;2024-01-25T21:15:50;51.08;;;19.75;;
61895;SDS011;47835;52.778;5.956;2024-01-25T21:18:16;54.00;;;19.33;;
61895;SDS011;47835;52.778;5.956;2024-01-25T21:20:42;50.55;;;18.13;;
61895;SDS011;47835;52.778;5.956;2024-01-25T21:23:07;49.40;;;17.02;;
61895;SDS011;47835;52.778;5.956;2024-01-25T21:25:33;46.28;;;17.38;;
61895;SDS011;47835;52.778;5.956;2024-01-25T21:27:59;49.25;;;18.50;;
61895;SDS011;47835;52.778;5.956;2024-01-25T21:30:26;45.05;;;17.02;;
61895;SDS011;47835;52.778;5.956;2024-01-25T21:32:52;42.90;;;16.25;;
61895;SDS011;47835;52.778;5.956;2024-01-25T21:35:18;40.28;;;16.40;;
61895;SDS011;47835;52.778;5.956;2024-01-25T21:37:43;52.25;;;19.13;;
61895;SDS011;47835;52.778;5.956;2024-01-25T21:40:09;51.03;;;18.90;;
61895;SDS011;47835;52.778;5.956;2024-01-25T21:42:35;44.40;;;17.40;;
61895;SDS011;47835;52.778;5.956;2024-01-25T21:45:08;50.78;;;17.73;;
61895;SDS011;47835;52.778;5.956;2024-01-25T21:47:34;43.58;;;16.67;;
61895;SDS011;47835;52.778;5.956;2024-01-25T21:49:59;51.42;;;20.23;;
61895;SDS011;47835;52.778;5.956;2024-01-25T21:52:28;47.50;;;18.00;;
61895;SDS011;47835;52.778;5.956;2024-01-25T21:54:54;51.78;;;18.75;;
61895;SDS011;47835;52.778;5.956;2024-01-25T21:57:20;48.05;;;19.23;;
61895;SDS011;47835;52.778;5.956;2024-01-25T21:59:46;51.70;;;18.85;;
61895;SDS011;47835;52.778;5.956;2024-01-25T22:02:12;51.05;;;21.45;;
61895;SDS011;47835;52.778;5.956;2024-01-25T22:04:37;58.05;;;20.45;;
61895;SDS011;47835;52.778;5.956;2024-01-25T22:07:04;58.08;;;23.05;;
61895;SDS011;47835;52.778;5.956;2024-01-25T22:09:30;57.35;;;19.63;;
61895;SDS011;47835;52.778;5.956;2024-01-25T22:11:55;52.58;;;19.70;;
61895;SDS011;47835;52.778;5.956;2024-01-25T22:14:21;51.80;;;19.88;;
61895;SDS011;47835;52.778;5.956;2024-01-25T22:16:56;54.67;;;20.00;;
61895;SDS011;47835;52.778;5.956;2024-01-25T22:19:21;57.25;;;20.25;;
61895;SDS011;47835;52.778;5.956;2024-01-25T22:21:47;68.10;;;25.50;;
61895;SDS011;47835;52.778;5.956;2024-01-25T22:24:13;53.17;;;19.92;;
61895;SDS011;47835;52.778;5.956;2024-01-25T22:26:38;67.20;;;24.63;;
61895;SDS011;47835;52.778;5.956;2024-01-25T22:29:04;56.85;;;22.40;;
61895;SDS011;47835;52.778;5.956;2024-01-25T22:31:30;61.10;;;22.58;;
61895;SDS011;47835;52.778;5.956;2024-01-25T22:33:56;58.75;;;20.42;;
61895;SDS011;47835;52.778;5.956;2024-01-25T22:36:21;60.40;;;19.45;;
61895;SDS011;47835;52.778;5.956;2024-01-25T22:38:47;63.70;;;23.15;;
61895;SDS011;47835;52.778;5.956;2024-01-25T22:41:13;70.50;;;21.58;;
61895;SDS011;47835;52.778;5.956;2024-01-25T22:43:39;57.58;;;20.83;;
61895;SDS011;47835;52.778;5.956;2024-01-25T22:46:12;63.17;;;22.55;;
61895;SDS011;47835;52.778;5.956;2024-01-25T22:48:38;69.38;;;24.48;;
61895;SDS011;47835;52.778;5.956;2024-01-25T22:51:03;66.38;;;21.33;;
61895;SDS011;47835;52.778;5.956;2024-01-25T22:53:29;60.28;;;23.95;;
61895;SDS011;47835;52.778;5.956;2024-01-25T22:55:55;62.55;;;22.13;;
61895;SDS011;47835;52.778;5.956;2024-01-25T22:58:21;72.60;;;24.48;;
61895;SDS011;47835;52.778;5.956;2024-01-25T23:00:47;73.55;;;26.00;;
61895;SDS011;47835;52.778;5.956;2024-01-25T23:03:12;74.13;;;26.13;;
61895;SDS011;47835;52.778;5.956;2024-01-25T23:05:41;76.13;;;25.52;;
61895;SDS011;47835;52.778;5.956;2024-01-25T23:08:07;63.78;;;23.52;;
61895;SDS011;47835;52.778;5.956;2024-01-25T23:10:33;64.45;;;23.40;;
61895;SDS011;47835;52.778;5.956;2024-01-25T23:12:59;69.13;;;23.33;;
61895;SDS011;47835;52.778;5.956;2024-01-25T23:15:24;67.70;;;22.85;;
61895;SDS011;47835;52.778;5.956;2024-01-25T23:17:50;66.32;;;23.25;;
61895;SDS011;47835;52.778;5.956;2024-01-25T23:20:18;74.00;;;24.42;;
61895;SDS011;47835;52.778;5.956;2024-01-25T23:22:43;67.03;;;23.55;;
61895;SDS011;47835;52.778;5.956;2024-01-25T23:25:09;60.20;;;21.60;;
61895;SDS011;47835;52.778;5.956;2024-01-25T23:27:35;59.80;;;22.45;;
61895;SDS011;47835;52.778;5.956;2024-01-25T23:30:00;57.60;;;21.90;;
61895;SDS011;47835;52.778;5.956;2024-01-25T23:32:26;62.58;;;21.20;;
61895;SDS011;47835;52.778;5.956;2024-01-25T23:34:52;62.30;;;23.05;;
61895;SDS011;47835;52.778;5.956;2024-01-25T23:37:18;65.35;;;27.30;;
61895;SDS011;47835;52.778;5.956;2024-01-25T23:39:44;62.30;;;22.83;;
61895;SDS011;47835;52.778;5.956;2024-01-25T23:42:09;57.88;;;20.73;;
61895;SDS011;47835;52.778;5.956;2024-01-25T23:44:35;67.45;;;25.55;;
61895;SDS011;47835;52.778;5.956;2024-01-25T23:47:01;68.65;;;24.13;;
61895;SDS011;47835;52.778;5.956;2024-01-25T23:49:26;59.63;;;22.25;;
61895;SDS011;47835;52.778;5.956;2024-01-25T23:51:52;58.08;;;24.63;;
61895;SDS011;47835;52.778;5.956;2024-01-25T23:54:18;64.07;;;23.42;;
61895;SDS011;47835;52.778;5.956;2024-01-25T23:56:44;59.60;;;25.00;;
61895;SDS011;47835;52.778;5.956;2024-01-25T23:59:09;58.08;;;21.83;;
